Carpio, North Dakota
Current Conditions -  °F | °C
As of 1:58 PM on Thursday 30 Oct 2014 (Local Time) from KMIB Reporting Station
Overcast Overcast  
Wind Chill: 24°   Ceiling: 1800
Heat Index: 33°   Visibility: 10mi
Dew Point: 26°   Wind: 12mph
Humidity: 75%   Direction: 10°N
Pressure: 30.44"   Gusts: 18mph
Location:  48.44°N, 101.71°W
Report Text: KMIB 301858Z AUTO 01010G16KT 10SM OVC018 00/M04 A3044 RMK AO2 SLP335 T00041036 $
Loading
Personal Weather Stations






























Interactive Weather Map
Tropical Storm Tracking
New forecast layout! Learn more

10-Day Weather Forecast

Advertisements
Track Severe Weather on mobile